sensor_id;sensor_type;location;lat;lon;timestamp;P1;durP1;ratioP1;P2;durP2;ratioP2
8881;SDS011;4477;48.736;9.176;2022-09-12T00:01:51;33.97;;;25.37;;
8881;SDS011;4477;48.736;9.176;2022-09-12T00:04:18;26.70;;;22.97;;
8881;SDS011;4477;48.736;9.176;2022-09-12T00:06:46;27.40;;;23.57;;
8881;SDS011;4477;48.736;9.176;2022-09-12T00:09:13;25.67;;;22.90;;
8881;SDS011;4477;48.736;9.176;2022-09-12T00:11:41;31.17;;;25.17;;
8881;SDS011;4477;48.736;9.176;2022-09-12T00:14:11;36.27;;;27.87;;
8881;SDS011;4477;48.736;9.176;2022-09-12T00:16:40;38.23;;;27.90;;
8881;SDS011;4477;48.736;9.176;2022-09-12T00:19:07;37.37;;;27.23;;
8881;SDS011;4477;48.736;9.176;2022-09-12T00:21:36;36.63;;;26.43;;
8881;SDS011;4477;48.736;9.176;2022-09-12T00:24:05;31.43;;;23.97;;
8881;SDS011;4477;48.736;9.176;2022-09-12T00:26:32;29.00;;;24.13;;
8881;SDS011;4477;48.736;9.176;2022-09-12T00:28:59;37.87;;;27.30;;
8881;SDS011;4477;48.736;9.176;2022-09-12T00:31:26;39.73;;;28.03;;
8881;SDS011;4477;48.736;9.176;2022-09-12T00:33:54;33.40;;;25.00;;
8881;SDS011;4477;48.736;9.176;2022-09-12T00:36:23;36.87;;;25.50;;
8881;SDS011;4477;48.736;9.176;2022-09-12T00:38:50;31.37;;;25.17;;
8881;SDS011;4477;48.736;9.176;2022-09-12T00:41:20;35.63;;;26.00;;
8881;SDS011;4477;48.736;9.176;2022-09-12T00:43:50;30.97;;;24.33;;
8881;SDS011;4477;48.736;9.176;2022-09-12T00:46:25;35.83;;;27.27;;
8881;SDS011;4477;48.736;9.176;2022-09-12T00:48:58;34.80;;;26.67;;
8881;SDS011;4477;48.736;9.176;2022-09-12T00:51:28;48.50;;;31.53;;
8881;SDS011;4477;48.736;9.176;2022-09-12T00:53:57;42.20;;;30.90;;
8881;SDS011;4477;48.736;9.176;2022-09-12T00:56:29;29.93;;;24.80;;
8881;SDS011;4477;48.736;9.176;2022-09-12T00:58:57;43.60;;;30.23;;
8881;SDS011;4477;48.736;9.176;2022-09-12T01:01:29;41.23;;;30.30;;
8881;SDS011;4477;48.736;9.176;2022-09-12T01:03:57;53.67;;;34.50;;
8881;SDS011;4477;48.736;9.176;2022-09-12T01:06:25;41.73;;;30.93;;
8881;SDS011;4477;48.736;9.176;2022-09-12T01:08:54;33.93;;;26.37;;
8881;SDS011;4477;48.736;9.176;2022-09-12T01:11:23;47.33;;;32.57;;
8881;SDS011;4477;48.736;9.176;2022-09-12T01:13:51;47.17;;;31.53;;
8881;SDS011;4477;48.736;9.176;2022-09-12T01:16:19;52.27;;;33.33;;
8881;SDS011;4477;48.736;9.176;2022-09-12T01:18:54;45.93;;;31.47;;
8881;SDS011;4477;48.736;9.176;2022-09-12T01:21:32;35.17;;;25.73;;
8881;SDS011;4477;48.736;9.176;2022-09-12T01:27:12;45.03;;;30.87;;
8881;SDS011;4477;48.736;9.176;2022-09-12T01:32:52;50.43;;;32.37;;
8881;SDS011;4477;48.736;9.176;2022-09-12T01:35:27;40.40;;;29.73;;
8881;SDS011;4477;48.736;9.176;2022-09-12T01:38:06;51.33;;;33.33;;
8881;SDS011;4477;48.736;9.176;2022-09-12T01:40:39;50.63;;;32.57;;
8881;SDS011;4477;48.736;9.176;2022-09-12T01:43:16;47.00;;;32.43;;
8881;SDS011;4477;48.736;9.176;2022-09-12T01:45:51;58.50;;;35.87;;
8881;SDS011;4477;48.736;9.176;2022-09-12T01:48:27;39.70;;;28.80;;
8881;SDS011;4477;48.736;9.176;2022-09-12T01:51:01;50.07;;;33.60;;
8881;SDS011;4477;48.736;9.176;2022-09-12T01:53:33;49.77;;;34.33;;
8881;SDS011;4477;48.736;9.176;2022-09-12T01:56:06;57.53;;;37.30;;
8881;SDS011;4477;48.736;9.176;2022-09-12T01:58:37;58.87;;;36.60;;
8881;SDS011;4477;48.736;9.176;2022-09-12T02:01:09;47.30;;;32.63;;
8881;SDS011;4477;48.736;9.176;2022-09-12T02:03:42;66.20;;;39.20;;
8881;SDS011;4477;48.736;9.176;2022-09-12T02:06:14;56.93;;;35.90;;
8881;SDS011;4477;48.736;9.176;2022-09-12T02:08:46;53.03;;;34.93;;
8881;SDS011;4477;48.736;9.176;2022-09-12T02:11:16;57.67;;;37.87;;
8881;SDS011;4477;48.736;9.176;2022-09-12T02:13:46;52.33;;;34.63;;
8881;SDS011;4477;48.736;9.176;2022-09-12T02:16:19;66.97;;;40.33;;
8881;SDS011;4477;48.736;9.176;2022-09-12T02:18:53;65.07;;;37.40;;
8881;SDS011;4477;48.736;9.176;2022-09-12T02:21:22;55.03;;;36.57;;
8881;SDS011;4477;48.736;9.176;2022-09-12T02:23:52;81.63;;;44.30;;
8881;SDS011;4477;48.736;9.176;2022-09-12T02:26:22;90.07;;;44.93;;
8881;SDS011;4477;48.736;9.176;2022-09-12T02:28:53;70.50;;;41.93;;
8881;SDS011;4477;48.736;9.176;2022-09-12T02:31:22;83.13;;;44.67;;
8881;SDS011;4477;48.736;9.176;2022-09-12T02:33:57;86.47;;;45.33;;
8881;SDS011;4477;48.736;9.176;2022-09-12T02:36:36;75.47;;;43.70;;
8881;SDS011;4477;48.736;9.176;2022-09-12T02:39:11;97.23;;;46.37;;
8881;SDS011;4477;48.736;9.176;2022-09-12T02:41:38;92.23;;;46.77;;
8881;SDS011;4477;48.736;9.176;2022-09-12T02:44:05;54.53;;;36.20;;
8881;SDS011;4477;48.736;9.176;2022-09-12T02:46:33;71.40;;;42.73;;
8881;SDS011;4477;48.736;9.176;2022-09-12T02:49:05;79.17;;;45.50;;
8881;SDS011;4477;48.736;9.176;2022-09-12T02:51:32;57.07;;;36.13;;
8881;SDS011;4477;48.736;9.176;2022-09-12T02:53:59;70.47;;;40.53;;
8881;SDS011;4477;48.736;9.176;2022-09-12T02:56:28;73.87;;;42.20;;
8881;SDS011;4477;48.736;9.176;2022-09-12T02:58:56;57.67;;;34.47;;
8881;SDS011;4477;48.736;9.176;2022-09-12T03:01:30;76.07;;;42.30;;
8881;SDS011;4477;48.736;9.176;2022-09-12T03:04:12;74.17;;;42.50;;
8881;SDS011;4477;48.736;9.176;2022-09-12T03:06:54;60.73;;;36.77;;
8881;SDS011;4477;48.736;9.176;2022-09-12T03:09:31;51.03;;;32.47;;
8881;SDS011;4477;48.736;9.176;2022-09-12T03:12:07;52.53;;;35.73;;
8881;SDS011;4477;48.736;9.176;2022-09-12T03:14:51;89.33;;;43.67;;
8881;SDS011;4477;48.736;9.176;2022-09-12T03:17:29;97.67;;;45.13;;
8881;SDS011;4477;48.736;9.176;2022-09-12T03:20:09;70.97;;;40.13;;
8881;SDS011;4477;48.736;9.176;2022-09-12T03:22:40;55.67;;;34.40;;
8881;SDS011;4477;48.736;9.176;2022-09-12T03:25:16;74.27;;;40.80;;
8881;SDS011;4477;48.736;9.176;2022-09-12T03:27:48;65.33;;;38.60;;
8881;SDS011;4477;48.736;9.176;2022-09-12T03:30:19;72.97;;;39.70;;
8881;SDS011;4477;48.736;9.176;2022-09-12T03:32:46;61.00;;;38.97;;
8881;SDS011;4477;48.736;9.176;2022-09-12T03:35:16;91.67;;;44.13;;
8881;SDS011;4477;48.736;9.176;2022-09-12T03:37:45;73.77;;;44.03;;
8881;SDS011;4477;48.736;9.176;2022-09-12T03:40:12;109.20;;;50.27;;
8881;SDS011;4477;48.736;9.176;2022-09-12T03:42:39;88.23;;;46.03;;
8881;SDS011;4477;48.736;9.176;2022-09-12T03:45:07;94.97;;;46.43;;
8881;SDS011;4477;48.736;9.176;2022-09-12T03:47:35;78.07;;;43.17;;
8881;SDS011;4477;48.736;9.176;2022-09-12T03:50:02;108.60;;;47.50;;
8881;SDS011;4477;48.736;9.176;2022-09-12T03:52:31;58.60;;;36.40;;
8881;SDS011;4477;48.736;9.176;2022-09-12T03:54:58;60.87;;;37.93;;
8881;SDS011;4477;48.736;9.176;2022-09-12T03:57:25;75.27;;;41.93;;
8881;SDS011;4477;48.736;9.176;2022-09-12T03:59:52;65.33;;;37.87;;
8881;SDS011;4477;48.736;9.176;2022-09-12T04:02:18;76.00;;;41.13;;
8881;SDS011;4477;48.736;9.176;2022-09-12T04:04:45;74.87;;;41.47;;
8881;SDS011;4477;48.736;9.176;2022-09-12T04:07:13;87.17;;;45.10;;
8881;SDS011;4477;48.736;9.176;2022-09-12T04:09:43;83.73;;;43.77;;
8881;SDS011;4477;48.736;9.176;2022-09-12T04:12:10;73.30;;;41.00;;
8881;SDS011;4477;48.736;9.176;2022-09-12T04:14:38;79.87;;;43.17;;
8881;SDS011;4477;48.736;9.176;2022-09-12T04:17:05;114.60;;;48.43;;
8881;SDS011;4477;48.736;9.176;2022-09-12T04:19:32;134.87;;;52.03;;
8881;SDS011;4477;48.736;9.176;2022-09-12T04:21:59;100.80;;;47.90;;
8881;SDS011;4477;48.736;9.176;2022-09-12T04:24:25;71.60;;;41.90;;
8881;SDS011;4477;48.736;9.176;2022-09-12T04:26:54;101.00;;;46.47;;
8881;SDS011;4477;48.736;9.176;2022-09-12T04:29:21;81.13;;;44.07;;
8881;SDS011;4477;48.736;9.176;2022-09-12T04:31:47;77.17;;;41.97;;
8881;SDS011;4477;48.736;9.176;2022-09-12T04:34:14;102.43;;;46.33;;
8881;SDS011;4477;48.736;9.176;2022-09-12T04:36:41;113.70;;;49.40;;
8881;SDS011;4477;48.736;9.176;2022-09-12T04:39:09;106.00;;;47.37;;
8881;SDS011;4477;48.736;9.176;2022-09-12T04:41:37;120.73;;;52.37;;
8881;SDS011;4477;48.736;9.176;2022-09-12T04:44:07;107.67;;;47.80;;
8881;SDS011;4477;48.736;9.176;2022-09-12T04:46:37;70.33;;;41.23;;
8881;SDS011;4477;48.736;9.176;2022-09-12T04:49:06;92.70;;;45.27;;
8881;SDS011;4477;48.736;9.176;2022-09-12T04:51:33;121.90;;;49.33;;
8881;SDS011;4477;48.736;9.176;2022-09-12T04:54:03;125.73;;;50.33;;
8881;SDS011;4477;48.736;9.176;2022-09-12T04:56:31;86.20;;;42.97;;
8881;SDS011;4477;48.736;9.176;2022-09-12T04:58:59;92.13;;;44.30;;
8881;SDS011;4477;48.736;9.176;2022-09-12T05:01:28;117.40;;;50.50;;
8881;SDS011;4477;48.736;9.176;2022-09-12T05:03:55;119.73;;;50.03;;
8881;SDS011;4477;48.736;9.176;2022-09-12T05:06:25;94.30;;;47.00;;
8881;SDS011;4477;48.736;9.176;2022-09-12T05:08:54;97.07;;;45.33;;
8881;SDS011;4477;48.736;9.176;2022-09-12T05:11:23;67.43;;;39.63;;
8881;SDS011;4477;48.736;9.176;2022-09-12T05:13:51;80.70;;;41.57;;
8881;SDS011;4477;48.736;9.176;2022-09-12T05:16:18;123.07;;;48.43;;
8881;SDS011;4477;48.736;9.176;2022-09-12T05:18:48;96.77;;;46.30;;
8881;SDS011;4477;48.736;9.176;2022-09-12T05:21:16;86.40;;;42.63;;
8881;SDS011;4477;48.736;9.176;2022-09-12T05:23:44;68.23;;;38.97;;
8881;SDS011;4477;48.736;9.176;2022-09-12T05:26:13;75.73;;;42.43;;
8881;SDS011;4477;48.736;9.176;2022-09-12T05:28:41;85.63;;;45.27;;
8881;SDS011;4477;48.736;9.176;2022-09-12T05:31:10;92.33;;;47.87;;
8881;SDS011;4477;48.736;9.176;2022-09-12T05:33:40;105.23;;;48.80;;
8881;SDS011;4477;48.736;9.176;2022-09-12T05:36:11;92.63;;;46.17;;
8881;SDS011;4477;48.736;9.176;2022-09-12T05:38:39;80.13;;;42.70;;
8881;SDS011;4477;48.736;9.176;2022-09-12T05:41:06;125.97;;;56.70;;
8881;SDS011;4477;48.736;9.176;2022-09-12T05:43:36;89.20;;;49.97;;
8881;SDS011;4477;48.736;9.176;2022-09-12T05:46:04;97.03;;;49.53;;
8881;SDS011;4477;48.736;9.176;2022-09-12T05:48:33;87.20;;;47.43;;
8881;SDS011;4477;48.736;9.176;2022-09-12T05:51:01;110.67;;;56.00;;
8881;SDS011;4477;48.736;9.176;2022-09-12T05:53:32;107.70;;;56.07;;
8881;SDS011;4477;48.736;9.176;2022-09-12T05:56:03;107.13;;;54.37;;
8881;SDS011;4477;48.736;9.176;2022-09-12T05:58:31;93.97;;;52.67;;
8881;SDS011;4477;48.736;9.176;2022-09-12T06:01:02;101.67;;;53.47;;
8881;SDS011;4477;48.736;9.176;2022-09-12T06:03:31;110.27;;;58.20;;
8881;SDS011;4477;48.736;9.176;2022-09-12T06:06:02;102.63;;;56.37;;
8881;SDS011;4477;48.736;9.176;2022-09-12T06:08:30;94.90;;;54.70;;
8881;SDS011;4477;48.736;9.176;2022-09-12T06:10:59;98.30;;;54.27;;
8881;SDS011;4477;48.736;9.176;2022-09-12T06:13:27;100.27;;;54.87;;
8881;SDS011;4477;48.736;9.176;2022-09-12T06:16:00;98.90;;;54.93;;
8881;SDS011;4477;48.736;9.176;2022-09-12T06:18:29;86.47;;;51.10;;
8881;SDS011;4477;48.736;9.176;2022-09-12T06:20:56;81.30;;;50.33;;
8881;SDS011;4477;48.736;9.176;2022-09-12T06:23:23;87.53;;;52.63;;
8881;SDS011;4477;48.736;9.176;2022-09-12T06:25:50;85.53;;;51.20;;
8881;SDS011;4477;48.736;9.176;2022-09-12T06:28:19;80.53;;;49.23;;
8881;SDS011;4477;48.736;9.176;2022-09-12T06:30:45;85.30;;;50.57;;
8881;SDS011;4477;48.736;9.176;2022-09-12T06:33:13;75.53;;;47.93;;
8881;SDS011;4477;48.736;9.176;2022-09-12T06:35:40;68.83;;;45.60;;
8881;SDS011;4477;48.736;9.176;2022-09-12T06:38:07;72.67;;;45.90;;
8881;SDS011;4477;48.736;9.176;2022-09-12T06:40:39;62.70;;;41.23;;
8881;SDS011;4477;48.736;9.176;2022-09-12T06:43:08;58.63;;;40.40;;
8881;SDS011;4477;48.736;9.176;2022-09-12T06:45:37;61.87;;;40.23;;
8881;SDS011;4477;48.736;9.176;2022-09-12T06:48:04;55.40;;;37.13;;
8881;SDS011;4477;48.736;9.176;2022-09-12T06:50:31;48.03;;;34.20;;
8881;SDS011;4477;48.736;9.176;2022-09-12T06:52:58;48.23;;;35.33;;
8881;SDS011;4477;48.736;9.176;2022-09-12T06:55:25;44.30;;;32.47;;
8881;SDS011;4477;48.736;9.176;2022-09-12T06:57:53;40.07;;;30.70;;
8881;SDS011;4477;48.736;9.176;2022-09-12T07:00:19;41.47;;;31.50;;
8881;SDS011;4477;48.736;9.176;2022-09-12T07:02:48;38.50;;;29.83;;
8881;SDS011;4477;48.736;9.176;2022-09-12T07:05:18;36.73;;;29.10;;
8881;SDS011;4477;48.736;9.176;2022-09-12T07:07:45;32.97;;;27.63;;
8881;SDS011;4477;48.736;9.176;2022-09-12T07:10:13;31.57;;;26.00;;
8881;SDS011;4477;48.736;9.176;2022-09-12T07:12:40;30.40;;;24.67;;
8881;SDS011;4477;48.736;9.176;2022-09-12T07:15:07;26.67;;;23.33;;
8881;SDS011;4477;48.736;9.176;2022-09-12T07:17:35;25.93;;;23.23;;
8881;SDS011;4477;48.736;9.176;2022-09-12T07:20:04;23.90;;;21.40;;
8881;SDS011;4477;48.736;9.176;2022-09-12T07:22:31;21.93;;;19.57;;
8881;SDS011;4477;48.736;9.176;2022-09-12T07:24:58;23.07;;;18.50;;
8881;SDS011;4477;48.736;9.176;2022-09-12T07:27:25;18.67;;;16.77;;
8881;SDS011;4477;48.736;9.176;2022-09-12T07:29:52;17.43;;;15.67;;
8881;SDS011;4477;48.736;9.176;2022-09-12T07:32:19;15.93;;;14.17;;
8881;SDS011;4477;48.736;9.176;2022-09-12T07:34:47;16.33;;;14.63;;
8881;SDS011;4477;48.736;9.176;2022-09-12T07:37:15;14.73;;;12.83;;
8881;SDS011;4477;48.736;9.176;2022-09-12T07:39:42;13.67;;;12.27;;
8881;SDS011;4477;48.736;9.176;2022-09-12T07:42:08;14.10;;;12.60;;
8881;SDS011;4477;48.736;9.176;2022-09-12T07:44:36;13.87;;;12.47;;
8881;SDS011;4477;48.736;9.176;2022-09-12T07:47:03;12.70;;;11.40;;
8881;SDS011;4477;48.736;9.176;2022-09-12T07:49:30;13.57;;;10.93;;
8881;SDS011;4477;48.736;9.176;2022-09-12T07:51:57;11.40;;;10.30;;
8881;SDS011;4477;48.736;9.176;2022-09-12T07:54:25;10.47;;;9.47;;
8881;SDS011;4477;48.736;9.176;2022-09-12T07:56:52;12.23;;;8.93;;
8881;SDS011;4477;48.736;9.176;2022-09-12T07:59:19;10.80;;;9.67;;
8881;SDS011;4477;48.736;9.176;2022-09-12T08:01:46;11.33;;;8.53;;
8881;SDS011;4477;48.736;9.176;2022-09-12T08:04:13;10.63;;;7.97;;
8881;SDS011;4477;48.736;9.176;2022-09-12T08:06:40;9.77;;;8.17;;
8881;SDS011;4477;48.736;9.176;2022-09-12T08:09:06;10.40;;;8.67;;
8881;SDS011;4477;48.736;9.176;2022-09-12T08:11:37;7.87;;;7.17;;
8881;SDS011;4477;48.736;9.176;2022-09-12T08:14:04;7.57;;;6.67;;
8881;SDS011;4477;48.736;9.176;2022-09-12T08:16:31;10.30;;;5.70;;
8881;SDS011;4477;48.736;9.176;2022-09-12T08:18:59;8.53;;;6.77;;
8881;SDS011;4477;48.736;9.176;2022-09-12T08:21:26;7.17;;;6.57;;
8881;SDS011;4477;48.736;9.176;2022-09-12T08:23:55;6.20;;;5.70;;
8881;SDS011;4477;48.736;9.176;2022-09-12T08:26:26;6.13;;;5.53;;
8881;SDS011;4477;48.736;9.176;2022-09-12T08:28:54;5.77;;;4.87;;
8881;SDS011;4477;48.736;9.176;2022-09-12T08:31:22;7.90;;;5.10;;
8881;SDS011;4477;48.736;9.176;2022-09-12T08:33:51;8.00;;;4.87;;
8881;SDS011;4477;48.736;9.176;2022-09-12T08:36:20;8.43;;;4.67;;
8881;SDS011;4477;48.736;9.176;2022-09-12T08:38:49;6.03;;;4.22;;
8881;SDS011;4477;48.736;9.176;2022-09-12T08:41:20;5.27;;;4.17;;
8881;SDS011;4477;48.736;9.176;2022-09-12T08:43:56;5.20;;;4.70;;
8881;SDS011;4477;48.736;9.176;2022-09-12T08:46:35;4.93;;;4.47;;
8881;SDS011;4477;48.736;9.176;2022-09-12T08:49:07;4.90;;;2.88;;
8881;SDS011;4477;48.736;9.176;2022-09-12T08:51:37;3.38;;;3.08;;
8881;SDS011;4477;48.736;9.176;2022-09-12T08:54:06;3.30;;;2.60;;
8881;SDS011;4477;48.736;9.176;2022-09-12T08:56:43;2.80;;;2.60;;
8881;SDS011;4477;48.736;9.176;2022-09-12T08:59:13;3.45;;;3.00;;
8881;SDS011;4477;48.736;9.176;2022-09-12T09:01:41;3.33;;;2.55;;
8881;SDS011;4477;48.736;9.176;2022-09-12T09:04:22;2.85;;;2.30;;
8881;SDS011;4477;48.736;9.176;2022-09-12T09:07:06;5.70;;;3.30;;
8881;SDS011;4477;48.736;9.176;2022-09-12T09:09:50;4.53;;;3.70;;
8881;SDS011;4477;48.736;9.176;2022-09-12T09:12:27;2.40;;;2.20;;
8881;SDS011;4477;48.736;9.176;2022-09-12T09:17:59;3.58;;;2.90;;
8881;SDS011;4477;48.736;9.176;2022-09-12T09:20:31;2.42;;;2.17;;
8881;SDS011;4477;48.736;9.176;2022-09-12T09:23:05;2.30;;;2.20;;
8881;SDS011;4477;48.736;9.176;2022-09-12T09:25:41;2.88;;;2.53;;
8881;SDS011;4477;48.736;9.176;2022-09-12T09:28:13;3.17;;;2.40;;
8881;SDS011;4477;48.736;9.176;2022-09-12T09:30:45;4.28;;;2.50;;
8881;SDS011;4477;48.736;9.176;2022-09-12T09:33:14;3.88;;;3.10;;
8881;SDS011;4477;48.736;9.176;2022-09-12T09:35:47;3.30;;;2.45;;
8881;SDS011;4477;48.736;9.176;2022-09-12T09:38:22;3.28;;;2.60;;
8881;SDS011;4477;48.736;9.176;2022-09-12T09:40:58;3.05;;;2.75;;
8881;SDS011;4477;48.736;9.176;2022-09-12T09:43:41;4.18;;;2.80;;
8881;SDS011;4477;48.736;9.176;2022-09-12T09:46:10;3.15;;;2.95;;
8881;SDS011;4477;48.736;9.176;2022-09-12T09:48:39;3.30;;;3.00;;
8881;SDS011;4477;48.736;9.176;2022-09-12T09:51:09;4.82;;;2.50;;
8881;SDS011;4477;48.736;9.176;2022-09-12T09:53:38;2.50;;;2.30;;
8881;SDS011;4477;48.736;9.176;2022-09-12T09:56:11;2.10;;;1.90;;
8881;SDS011;4477;48.736;9.176;2022-09-12T09:58:45;3.20;;;2.25;;
8881;SDS011;4477;48.736;9.176;2022-09-12T10:01:14;3.30;;;2.45;;
8881;SDS011;4477;48.736;9.176;2022-09-12T10:03:46;2.55;;;2.15;;
8881;SDS011;4477;48.736;9.176;2022-09-12T10:06:22;2.67;;;1.98;;
8881;SDS011;4477;48.736;9.176;2022-09-12T10:08:51;2.38;;;1.92;;
8881;SDS011;4477;48.736;9.176;2022-09-12T10:11:42;2.55;;;1.92;;
8881;SDS011;4477;48.736;9.176;2022-09-12T10:14:24;2.92;;;1.88;;
8881;SDS011;4477;48.736;9.176;2022-09-12T10:19:54;1.77;;;1.67;;
8881;SDS011;4477;48.736;9.176;2022-09-12T10:22:25;2.20;;;2.00;;
8881;SDS011;4477;48.736;9.176;2022-09-12T10:24:55;2.60;;;1.70;;
8881;SDS011;4477;48.736;9.176;2022-09-12T10:27:24;2.03;;;1.83;;
8881;SDS011;4477;48.736;9.176;2022-09-12T10:29:54;2.20;;;2.10;;
8881;SDS011;4477;48.736;9.176;2022-09-12T10:32:28;1.90;;;1.80;;
8881;SDS011;4477;48.736;9.176;2022-09-12T10:35:01;2.30;;;1.60;;
8881;SDS011;4477;48.736;9.176;2022-09-12T10:37:33;2.20;;;1.73;;
8881;SDS011;4477;48.736;9.176;2022-09-12T10:40:03;2.05;;;1.90;;
8881;SDS011;4477;48.736;9.176;2022-09-12T10:42:47;3.40;;;1.77;;
8881;SDS011;4477;48.736;9.176;2022-09-12T10:45:18;2.45;;;1.60;;
8881;SDS011;4477;48.736;9.176;2022-09-12T10:47:49;1.70;;;1.45;;
8881;SDS011;4477;48.736;9.176;2022-09-12T10:50:20;3.38;;;1.63;;
8881;SDS011;4477;48.736;9.176;2022-09-12T10:52:50;2.75;;;1.60;;
8881;SDS011;4477;48.736;9.176;2022-09-12T10:55:17;1.55;;;1.45;;
8881;SDS011;4477;48.736;9.176;2022-09-12T10:57:56;1.67;;;1.30;;
8881;SDS011;4477;48.736;9.176;2022-09-12T11:00:30;1.98;;;1.70;;
8881;SDS011;4477;48.736;9.176;2022-09-12T11:03:15;1.52;;;1.40;;
8881;SDS011;4477;48.736;9.176;2022-09-12T11:05:58;1.95;;;1.30;;
8881;SDS011;4477;48.736;9.176;2022-09-12T11:08:36;2.03;;;1.50;;
8881;SDS011;4477;48.736;9.176;2022-09-12T11:11:14;3.50;;;1.50;;
8881;SDS011;4477;48.736;9.176;2022-09-12T11:14:04;1.92;;;1.48;;
8881;SDS011;4477;48.736;9.176;2022-09-12T11:16:44;2.40;;;1.30;;
8881;SDS011;4477;48.736;9.176;2022-09-12T11:19:26;1.85;;;1.15;;
8881;SDS011;4477;48.736;9.176;2022-09-12T11:22:14;2.67;;;1.58;;
8881;SDS011;4477;48.736;9.176;2022-09-12T11:24:54;2.78;;;1.60;;
8881;SDS011;4477;48.736;9.176;2022-09-12T11:27:50;2.08;;;1.50;;
8881;SDS011;4477;48.736;9.176;2022-09-12T11:30:28;1.80;;;1.50;;
8881;SDS011;4477;48.736;9.176;2022-09-12T11:33:04;2.30;;;1.20;;
8881;SDS011;4477;48.736;9.176;2022-09-12T11:35:42;1.08;;;1.02;;
8881;SDS011;4477;48.736;9.176;2022-09-12T11:38:18;1.10;;;1.00;;
8881;SDS011;4477;48.736;9.176;2022-09-12T11:40:59;1.08;;;0.90;;
8881;SDS011;4477;48.736;9.176;2022-09-12T11:43:32;1.45;;;0.90;;
8881;SDS011;4477;48.736;9.176;2022-09-12T11:46:07;1.55;;;1.33;;
8881;SDS011;4477;48.736;9.176;2022-09-12T11:48:41;2.00;;;0.93;;
8881;SDS011;4477;48.736;9.176;2022-09-12T11:51:18;3.22;;;1.00;;
8881;SDS011;4477;48.736;9.176;2022-09-12T11:53:48;0.98;;;0.90;;
8881;SDS011;4477;48.736;9.176;2022-09-12T11:56:33;1.08;;;1.00;;
8881;SDS011;4477;48.736;9.176;2022-09-12T11:59:08;0.93;;;0.93;;
8881;SDS011;4477;48.736;9.176;2022-09-12T12:01:41;0.90;;;0.73;;
8881;SDS011;4477;48.736;9.176;2022-09-12T12:04:11;1.48;;;1.10;;
8881;SDS011;4477;48.736;9.176;2022-09-12T12:06:47;1.10;;;0.90;;
8881;SDS011;4477;48.736;9.176;2022-09-12T12:09:17;2.33;;;1.00;;
8881;SDS011;4477;48.736;9.176;2022-09-12T12:11:46;1.23;;;1.10;;
8881;SDS011;4477;48.736;9.176;2022-09-12T12:14:17;1.52;;;0.90;;
8881;SDS011;4477;48.736;9.176;2022-09-12T12:16:46;1.10;;;0.80;;
8881;SDS011;4477;48.736;9.176;2022-09-12T12:19:24;1.10;;;0.95;;
8881;SDS011;4477;48.736;9.176;2022-09-12T12:22:11;1.00;;;0.95;;
8881;SDS011;4477;48.736;9.176;2022-09-12T12:27:53;1.67;;;0.90;;
8881;SDS011;4477;48.736;9.176;2022-09-12T12:36:30;1.73;;;0.95;;
8881;SDS011;4477;48.736;9.176;2022-09-12T12:39:02;1.30;;;1.20;;
8881;SDS011;4477;48.736;9.176;2022-09-12T12:48:25;2.95;;;0.95;;
8881;SDS011;4477;48.736;9.176;2022-09-12T12:50:54;1.10;;;1.00;;
8881;SDS011;4477;48.736;9.176;2022-09-12T12:53:41;1.52;;;0.90;;
8881;SDS011;4477;48.736;9.176;2022-09-12T12:56:23;1.02;;;0.88;;
8881;SDS011;4477;48.736;9.176;2022-09-12T12:58:56;2.15;;;0.90;;
8881;SDS011;4477;48.736;9.176;2022-09-12T13:01:26;1.13;;;1.02;;
8881;SDS011;4477;48.736;9.176;2022-09-12T13:03:54;0.80;;;0.80;;
8881;SDS011;4477;48.736;9.176;2022-09-12T13:06:28;0.77;;;0.77;;
8881;SDS011;4477;48.736;9.176;2022-09-12T13:08:59;1.23;;;1.00;;
8881;SDS011;4477;48.736;9.176;2022-09-12T13:11:33;1.10;;;0.70;;
8881;SDS011;4477;48.736;9.176;2022-09-12T13:14:03;1.17;;;0.70;;
8881;SDS011;4477;48.736;9.176;2022-09-12T13:16:34;1.42;;;0.75;;
8881;SDS011;4477;48.736;9.176;2022-09-12T13:19:03;2.30;;;0.80;;
8881;SDS011;4477;48.736;9.176;2022-09-12T13:21:33;0.63;;;0.60;;
8881;SDS011;4477;48.736;9.176;2022-09-12T13:24:01;1.33;;;0.52;;
8881;SDS011;4477;48.736;9.176;2022-09-12T13:26:33;0.82;;;0.65;;
8881;SDS011;4477;48.736;9.176;2022-09-12T13:29:09;0.88;;;0.70;;
8881;SDS011;4477;48.736;9.176;2022-09-12T13:31:37;1.05;;;0.73;;
8881;SDS011;4477;48.736;9.176;2022-09-12T13:34:04;1.15;;;0.80;;
8881;SDS011;4477;48.736;9.176;2022-09-12T13:36:48;0.75;;;0.70;;
8881;SDS011;4477;48.736;9.176;2022-09-12T13:39:34;2.05;;;0.70;;
8881;SDS011;4477;48.736;9.176;2022-09-12T13:42:31;1.85;;;0.90;;
8881;SDS011;4477;48.736;9.176;2022-09-12T13:45:08;0.60;;;0.60;;
8881;SDS011;4477;48.736;9.176;2022-09-12T13:47:39;0.60;;;0.50;;
8881;SDS011;4477;48.736;9.176;2022-09-12T13:50:12;0.95;;;0.60;;
8881;SDS011;4477;48.736;9.176;2022-09-12T13:52:44;0.70;;;0.60;;
8881;SDS011;4477;48.736;9.176;2022-09-12T13:55:17;0.80;;;0.65;;
8881;SDS011;4477;48.736;9.176;2022-09-12T13:57:56;1.75;;;0.73;;
8881;SDS011;4477;48.736;9.176;2022-09-12T14:00:25;1.48;;;0.63;;
8881;SDS011;4477;48.736;9.176;2022-09-12T14:02:56;1.00;;;0.65;;
8881;SDS011;4477;48.736;9.176;2022-09-12T14:05:37;1.00;;;0.90;;
8881;SDS011;4477;48.736;9.176;2022-09-12T14:08:07;0.90;;;0.80;;
8881;SDS011;4477;48.736;9.176;2022-09-12T14:10:38;1.35;;;0.65;;
8881;SDS011;4477;48.736;9.176;2022-09-12T14:13:10;0.60;;;0.60;;
8881;SDS011;4477;48.736;9.176;2022-09-12T14:15:43;1.13;;;0.60;;
8881;SDS011;4477;48.736;9.176;2022-09-12T14:18:20;0.85;;;0.65;;
8881;SDS011;4477;48.736;9.176;2022-09-12T14:20:48;1.38;;;0.70;;
8881;SDS011;4477;48.736;9.176;2022-09-12T14:23:23;0.90;;;0.80;;
8881;SDS011;4477;48.736;9.176;2022-09-12T14:25:52;2.03;;;0.80;;
8881;SDS011;4477;48.736;9.176;2022-09-12T14:28:21;6.78;;;1.10;;
8881;SDS011;4477;48.736;9.176;2022-09-12T14:31:01;1.08;;;0.70;;
8881;SDS011;4477;48.736;9.176;2022-09-12T14:33:31;0.70;;;0.70;;
8881;SDS011;4477;48.736;9.176;2022-09-12T14:36:11;0.70;;;0.70;;
8881;SDS011;4477;48.736;9.176;2022-09-12T14:38:46;1.20;;;0.80;;
8881;SDS011;4477;48.736;9.176;2022-09-12T14:41:20;1.52;;;1.08;;
8881;SDS011;4477;48.736;9.176;2022-09-12T14:43:52;1.15;;;0.52;;
8881;SDS011;4477;48.736;9.176;2022-09-12T14:46:22;0.85;;;0.80;;
8881;SDS011;4477;48.736;9.176;2022-09-12T14:48:53;1.85;;;0.98;;
8881;SDS011;4477;48.736;9.176;2022-09-12T14:51:24;1.20;;;0.90;;
8881;SDS011;4477;48.736;9.176;2022-09-12T14:53:53;1.38;;;0.88;;
8881;SDS011;4477;48.736;9.176;2022-09-12T14:56:20;1.15;;;0.85;;
8881;SDS011;4477;48.736;9.176;2022-09-12T14:58:48;1.48;;;0.82;;
8881;SDS011;4477;48.736;9.176;2022-09-12T15:01:26;0.90;;;0.90;;
8881;SDS011;4477;48.736;9.176;2022-09-12T15:03:53;2.67;;;0.85;;
8881;SDS011;4477;48.736;9.176;2022-09-12T15:06:22;0.80;;;0.80;;
8881;SDS011;4477;48.736;9.176;2022-09-12T15:08:53;0.70;;;0.70;;
8881;SDS011;4477;48.736;9.176;2022-09-12T15:11:21;0.80;;;0.80;;
8881;SDS011;4477;48.736;9.176;2022-09-12T15:13:48;0.70;;;0.60;;
8881;SDS011;4477;48.736;9.176;2022-09-12T15:16:15;1.63;;;0.93;;
8881;SDS011;4477;48.736;9.176;2022-09-12T15:18:44;1.05;;;0.75;;
8881;SDS011;4477;48.736;9.176;2022-09-12T15:21:11;1.17;;;0.90;;
8881;SDS011;4477;48.736;9.176;2022-09-12T15:23:44;0.95;;;0.93;;
8881;SDS011;4477;48.736;9.176;2022-09-12T15:26:13;2.17;;;0.90;;
8881;SDS011;4477;48.736;9.176;2022-09-12T15:28:41;1.15;;;1.00;;
8881;SDS011;4477;48.736;9.176;2022-09-12T15:31:10;1.10;;;0.88;;
8881;SDS011;4477;48.736;9.176;2022-09-12T15:33:51;1.40;;;1.08;;
8881;SDS011;4477;48.736;9.176;2022-09-12T15:36:19;1.08;;;1.00;;
8881;SDS011;4477;48.736;9.176;2022-09-12T15:38:47;1.63;;;1.08;;
8881;SDS011;4477;48.736;9.176;2022-09-12T15:41:15;1.42;;;1.00;;
8881;SDS011;4477;48.736;9.176;2022-09-12T15:43:43;1.00;;;0.80;;
8881;SDS011;4477;48.736;9.176;2022-09-12T15:46:11;1.92;;;1.23;;
8881;SDS011;4477;48.736;9.176;2022-09-12T15:48:41;2.13;;;0.90;;
8881;SDS011;4477;48.736;9.176;2022-09-12T15:51:11;2.13;;;1.15;;
8881;SDS011;4477;48.736;9.176;2022-09-12T15:53:38;5.03;;;1.00;;